Time;durP1;ratioP1;P1;durP2;ratioP2;P2;SDS_P1;SDS_P2;PMS_P1;PMS_P2;Temp;Humidity;BMP_temperature;BMP_pressure;BME280_temperature;BME280_humidity;BME280_pressure;Samples;Min_cycle;Max_cycle;Signal;HPM_P1;HPM_P2
2021/12/19 00:01:12;;;;;;;1.20;1.20;;;0.50;89.20;;;;;;5039981;28;20179;-74
2021/12/19 00:09:06;;;;;;;2.87;1.40;;;0.40;89.50;;;;;;5034313;28;20689;-75
2021/12/19 00:11:33;;;;;;;2.67;1.60;;;0.30;89.70;;;;;;5034437;28;20176;-75
2021/12/19 00:13:59;;;;;;;1.93;1.43;;;0.30;89.90;;;;;;5044729;28;20183;-74
2021/12/19 00:16:26;;;;;;;1.23;1.13;;;0.30;89.90;;;;;;5038874;28;20202;-74
2021/12/19 00:18:52;;;;;;;1.17;1.00;;;0.30;89.90;;;;;;5036980;28;20578;-75
2021/12/19 00:21:20;;;;;;;1.03;1.03;;;0.30;90.00;;;;;;5041011;28;20183;-74
2021/12/19 00:23:48;;;;;;;0.90;0.90;;;0.30;90.00;;;;;;5036561;28;20175;-74
2021/12/19 00:26:17;;;;;;;1.30;1.30;;;0.20;90.20;;;;;;5034439;28;20220;-74
2021/12/19 00:28:45;;;;;;;1.43;1.13;;;0.10;90.40;;;;;;5040803;28;20175;-74
2021/12/19 00:31:11;;;;;;;1.40;1.40;;;0.10;90.60;;;;;;5033121;28;20185;-76
2021/12/19 00:33:38;;;;;;;1.43;1.43;;;0.10;90.70;;;;;;5040146;28;20186;-74
2021/12/19 00:36:05;;;;;;;1.93;1.30;;;0.00;91.00;;;;;;5035389;28;20203;-75
2021/12/19 00:38:31;;;;;;;3.47;1.93;;;-0.10;91.60;;;;;;5033408;28;20263;-76
2021/12/19 00:40:58;;;;;;;0.87;0.87;;;-0.10;91.70;;;;;;5031278;28;20180;-75
2021/12/19 00:43:34;;;;;;;1.83;1.73;;;-0.10;91.90;;;;;;5041848;28;20192;-75
2021/12/19 00:46:06;;;;;;;1.27;1.27;;;-0.10;91.80;;;;;;5037850;28;20214;-76
2021/12/19 00:48:32;;;;;;;1.10;1.00;;;-0.20;91.90;;;;;;5039408;28;20196;-76
2021/12/19 00:50:59;;;;;;;1.27;1.27;;;-0.20;92.10;;;;;;5032655;28;20194;-75
2021/12/19 00:53:24;;;;;;;1.50;1.40;;;-0.20;92.20;;;;;;5035788;28;20190;-75
2021/12/19 00:55:50;;;;;;;1.30;1.20;;;-0.20;92.40;;;;;;5034394;28;20188;-75
2021/12/19 00:58:17;;;;;;;1.77;1.40;;;-0.20;92.40;;;;;;5032532;28;20325;-73
2021/12/19 01:00:43;;;;;;;3.20;1.53;;;-0.30;92.30;;;;;;5033909;28;20184;-73
2021/12/19 01:03:09;;;;;;;2.00;1.90;;;-0.30;92.60;;;;;;5035094;28;20208;-73
2021/12/19 01:05:38;;;;;;;1.93;1.83;;;-0.30;92.50;;;;;;5038224;28;20941;-73
2021/12/19 01:08:05;;;;;;;1.53;1.43;;;-0.30;92.80;;;;;;5041575;28;20225;-73
2021/12/19 01:10:32;;;;;;;2.00;1.53;;;-0.30;92.80;;;;;;5036865;28;20188;-73
2021/12/19 01:12:58;;;;;;;1.33;1.20;;;-0.30;92.80;;;;;;5040108;28;20580;-73
2021/12/19 01:15:24;;;;;;;1.67;1.57;;;-0.40;93.00;;;;;;5034524;28;20180;-73
2021/12/19 01:17:50;;;;;;;1.37;1.30;;;-0.40;93.20;;;;;;5040386;28;20194;-72
2021/12/19 01:20:23;;;;;;;2.00;1.80;;;-0.40;93.20;;;;;;5039523;28;20266;-73
2021/12/19 01:22:51;;;;;;;1.90;1.57;;;-0.40;93.40;;;;;;5039466;28;20188;-73
2021/12/19 01:25:17;;;;;;;1.50;1.40;;;-0.40;93.50;;;;;;5037457;28;20191;-72
2021/12/19 01:27:43;;;;;;;2.87;1.57;;;-0.40;93.60;;;;;;5035510;28;20186;-74
2021/12/19 01:30:10;;;;;;;3.33;1.77;;;-0.40;93.50;;;;;;5039745;28;20187;-74
2021/12/19 01:32:37;;;;;;;2.17;1.67;;;-0.30;93.50;;;;;;5039024;28;20183;-74
2021/12/19 01:35:04;;;;;;;1.37;1.07;;;-0.30;93.30;;;;;;5041803;28;20257;-73
2021/12/19 01:37:30;;;;;;;1.30;1.30;;;-0.20;93.20;;;;;;5040280;28;20214;-73
2021/12/19 01:39:56;;;;;;;1.10;1.10;;;-0.20;92.90;;;;;;5041056;28;20176;-74
2021/12/19 01:42:37;;;;;;;4.57;2.00;;;-0.20;92.90;;;;;;5042796;28;20627;-74
2021/12/19 01:45:05;;;;;;;2.40;1.77;;;-0.20;92.70;;;;;;5041462;28;20187;-73
2021/12/19 01:47:31;;;;;;;1.13;1.07;;;-0.20;92.70;;;;;;5038497;28;20234;-74
2021/12/19 01:49:57;;;;;;;1.13;1.13;;;-0.10;92.60;;;;;;5042542;28;20733;-75
2021/12/19 01:52:24;;;;;;;1.00;1.00;;;-0.20;92.40;;;;;;5037649;28;20814;-75
2021/12/19 01:54:50;;;;;;;0.90;0.90;;;-0.10;92.60;;;;;;5033876;28;20262;-75
2021/12/19 01:57:17;;;;;;;0.70;0.70;;;-0.10;92.70;;;;;;5038479;28;20269;-74
2021/12/19 01:59:43;;;;;;;2.17;2.00;;;-0.10;92.60;;;;;;5038594;28;20180;-74
2021/12/19 02:02:08;;;;;;;1.30;1.20;;;-0.10;92.60;;;;;;5039182;28;20536;-74
2021/12/19 02:04:34;;;;;;;1.60;1.50;;;-0.10;92.60;;;;;;5035751;28;20989;-74
2021/12/19 02:07:01;;;;;;;1.77;1.67;;;0.00;92.50;;;;;;5039234;28;20218;-74
2021/12/19 02:09:27;;;;;;;1.57;1.47;;;0.00;92.30;;;;;;5037316;28;20279;-75
2021/12/19 02:11:53;;;;;;;1.73;1.63;;;0.00;92.20;;;;;;5039139;28;20288;-75
2021/12/19 02:14:19;;;;;;;2.27;2.17;;;0.10;92.10;;;;;;5039951;28;20619;-75
2021/12/19 02:16:46;;;;;;;1.23;1.23;;;0.10;91.90;;;;;;5038920;28;20588;-75
2021/12/19 02:19:12;;;;;;;2.03;1.93;;;0.10;91.90;;;;;;5035171;28;20191;-75
2021/12/19 02:21:40;;;;;;;1.50;1.43;;;0.20;91.70;;;;;;5034079;28;20180;-74
2021/12/19 02:24:09;;;;;;;2.93;2.37;;;0.20;91.70;;;;;;5036963;28;20266;-75
2021/12/19 02:26:38;;;;;;;5.73;1.77;;;0.20;91.60;;;;;;5035494;28;20211;-75
2021/12/19 02:29:04;;;;;;;4.73;1.20;;;0.30;91.60;;;;;;5036072;28;20640;-76
2021/12/19 02:31:30;;;;;;;1.57;1.57;;;0.30;91.70;;;;;;5032739;28;20192;-74
2021/12/19 02:34:19;;;;;;;3.50;1.83;;;0.20;91.70;;;;;;5033975;28;20184;-75
2021/12/19 02:50:02;;;;;;;1.87;1.77;;;0.20;92.10;;;;;;5033229;28;20228;-76
2021/12/19 02:52:28;;;;;;;2.30;2.10;;;0.30;92.00;;;;;;5038111;28;20202;-74
2021/12/19 02:54:53;;;;;;;1.73;1.60;;;0.30;92.10;;;;;;5036138;28;20180;-75
2021/12/19 02:57:19;;;;;;;4.70;2.33;;;0.20;92.20;;;;;;5037634;28;20729;-74
2021/12/19 02:59:45;;;;;;;2.17;1.90;;;0.20;92.40;;;;;;5034334;28;20190;-73
2021/12/19 03:02:11;;;;;;;1.47;1.37;;;0.20;92.40;;;;;;5032774;28;20588;-75
2021/12/19 03:04:36;;;;;;;6.13;2.40;;;0.30;92.40;;;;;;5036142;28;20184;-76
2021/12/19 03:07:03;;;;;;;1.87;1.77;;;0.30;92.50;;;;;;5032618;28;20212;-75
2021/12/19 03:09:49;;;;;;;1.80;1.63;;;0.30;92.30;;;;;;5034905;28;20187;-75
2021/12/19 03:12:47;;;;;;;1.97;1.87;;;0.20;92.20;;;;;;5033539;28;20192;-75
2021/12/19 03:18:12;;;;;;;1.93;1.83;;;0.20;92.30;;;;;;5034104;28;20746;-75
2021/12/19 03:20:39;;;;;;;1.93;1.60;;;0.20;92.30;;;;;;5034081;28;20201;-75
2021/12/19 03:23:06;;;;;;;1.97;1.87;;;0.20;92.30;;;;;;5034270;28;20190;-76
2021/12/19 03:25:33;;;;;;;1.70;1.57;;;0.10;92.30;;;;;;5033059;28;20184;-76
2021/12/19 03:28:01;;;;;;;1.70;1.60;;;0.10;92.30;;;;;;5035566;28;20179;-76
2021/12/19 03:30:27;;;;;;;1.93;1.80;;;0.10;92.50;;;;;;5035137;28;20183;-75
2021/12/19 03:32:53;;;;;;;1.47;1.47;;;0.00;92.10;;;;;;5031344;28;20286;-75
2021/12/19 03:35:19;;;;;;;1.33;1.33;;;0.00;92.20;;;;;;5035514;28;20274;-76
2021/12/19 03:37:45;;;;;;;1.77;1.50;;;-0.10;92.40;;;;;;5031639;28;20207;-76
2021/12/19 03:40:13;;;;;;;1.60;1.60;;;-0.10;92.40;;;;;;5036988;28;20624;-76
2021/12/19 03:42:46;;;;;;;2.90;1.97;;;-0.10;92.40;;;;;;5032217;28;20669;-76
2021/12/19 03:45:15;;;;;;;1.37;1.37;;;-0.10;92.30;;;;;;5034179;28;20258;-75
2021/12/19 03:47:41;;;;;;;3.03;1.70;;;-0.10;92.30;;;;;;5036236;28;20676;-75
2021/12/19 03:50:10;;;;;;;1.80;1.63;;;-0.20;92.30;;;;;;5031509;28;20180;-76
2021/12/19 03:52:36;;;;;;;1.30;1.20;;;-0.30;92.40;;;;;;5032210;28;20585;-76
2021/12/19 03:55:03;;;;;;;1.93;1.47;;;-0.30;92.60;;;;;;5041492;28;20258;-76
2021/12/19 03:57:29;;;;;;;1.60;1.50;;;-0.30;92.50;;;;;;5036248;28;20188;-76
2021/12/19 03:59:55;;;;;;;2.83;1.43;;;-0.30;92.50;;;;;;5036781;28;20733;-76
2021/12/19 04:02:28;;;;;;;1.63;1.53;;;-0.30;92.50;;;;;;5036307;28;20330;-76
2021/12/19 04:04:56;;;;;;;1.50;1.33;;;-0.40;92.40;;;;;;5035326;28;20188;-76
2021/12/19 04:07:23;;;;;;;0.80;0.80;;;-0.40;92.40;;;;;;5040374;28;20219;-76
2021/12/19 04:09:49;;;;;;;1.33;1.23;;;-0.40;92.30;;;;;;5035636;28;20665;-76
2021/12/19 04:12:15;;;;;;;1.90;1.70;;;-0.50;92.60;;;;;;5037848;28;20222;-76
2021/12/19 04:14:42;;;;;;;1.03;1.03;;;-0.50;92.50;;;;;;5038304;28;20229;-76
2021/12/19 04:17:08;;;;;;;2.20;1.10;;;-0.50;92.50;;;;;;5036280;28;20234;-75
2021/12/19 04:19:35;;;;;;;1.30;1.20;;;-0.50;92.40;;;;;;5037053;28;20211;-75
2021/12/19 04:22:01;;;;;;;1.33;1.33;;;-0.50;92.40;;;;;;5037288;28;20194;-76
2021/12/19 04:24:27;;;;;;;1.10;1.10;;;-0.50;92.30;;;;;;5038255;28;20646;-75
2021/12/19 04:26:54;;;;;;;1.20;1.20;;;-0.50;92.20;;;;;;5032571;28;20216;-75
2021/12/19 04:29:20;;;;;;;1.20;1.20;;;-0.50;92.10;;;;;;5035234;28;20247;-76
2021/12/19 04:31:46;;;;;;;0.93;0.93;;;-0.50;92.00;;;;;;5036809;28;20188;-76
2021/12/19 04:34:13;;;;;;;1.20;1.20;;;-0.50;92.00;;;;;;5037509;28;20962;-77
2021/12/19 04:36:42;;;;;;;1.43;1.30;;;-0.40;91.90;;;;;;5036721;28;20192;-76
2021/12/19 04:39:34;;;;;;;1.00;1.00;;;-0.40;91.70;;;;;;5042049;28;20597;-75
2021/12/19 04:50:57;;;;;;;2.33;1.57;;;-0.30;91.30;;;;;;5037110;28;20265;-74
2021/12/19 04:58:24;;;;;;;0.90;0.90;;;-0.10;90.50;;;;;;5035820;28;20191;-74
2021/12/19 05:14:16;;;;;;;2.00;1.80;;;0.00;90.00;;;;;;4976914;28;20243;-75
2021/12/19 05:16:45;;;;;;;1.60;1.50;;;0.00;90.00;;;;;;4973933;28;20193;-75
2021/12/19 05:19:25;;;;;;;5.37;1.43;;;0.00;90.00;;;;;;4990963;28;20307;-74
2021/12/19 05:21:55;;;;;;;1.83;1.30;;;0.00;90.00;;;;;;4973956;28;20190;-74
2021/12/19 05:26:47;;;;;;;1.20;1.20;;;0.10;89.90;;;;;;4968329;28;20221;-75
2021/12/19 05:29:14;;;;;;;1.60;1.50;;;0.10;89.80;;;;;;4969678;28;20186;-75
2021/12/19 05:31:40;;;;;;;1.40;1.27;;;0.10;89.90;;;;;;4972972;28;20265;-75
2021/12/19 05:34:05;;;;;;;1.90;1.33;;;0.10;89.90;;;;;;4969168;28;20289;-75
2021/12/19 05:47:25;;;;;;;3.43;2.30;;;0.10;90.20;;;;;;4994718;28;20217;-75
2021/12/19 05:49:51;;;;;;;2.30;1.43;;;0.00;90.20;;;;;;4991501;28;20189;-74
2021/12/19 05:52:17;;;;;;;1.87;1.80;;;0.00;90.20;;;;;;4992115;28;20577;-75
2021/12/19 05:54:43;;;;;;;2.33;2.20;;;0.00;90.30;;;;;;4982940;28;20250;-76
2021/12/19 05:57:09;;;;;;;2.07;1.30;;;0.10;90.20;;;;;;4991558;28;20354;-75
2021/12/19 05:59:36;;;;;;;2.17;1.93;;;0.10;90.00;;;;;;4977607;28;20197;-76
2021/12/19 06:02:02;;;;;;;3.97;1.80;;;0.10;90.20;;;;;;4991648;28;20572;-75
2021/12/19 06:04:27;;;;;;;1.30;1.30;;;0.00;90.30;;;;;;4988211;28;20197;-76
2021/12/19 06:06:53;;;;;;;1.43;1.23;;;0.00;90.30;;;;;;4985620;28;20643;-76
2021/12/19 06:09:19;;;;;;;1.30;1.30;;;0.00;90.20;;;;;;4995293;28;20220;-74
2021/12/19 06:11:44;;;;;;;1.17;1.17;;;0.10;90.20;;;;;;4993149;28;20197;-76
2021/12/19 06:14:10;;;;;;;3.40;2.00;;;0.10;90.00;;;;;;4988045;28;20194;-76
2021/12/19 06:16:36;;;;;;;1.43;1.43;;;0.10;90.00;;;;;;4988881;28;20204;-76
2021/12/19 06:19:01;;;;;;;1.57;1.47;;;0.10;90.00;;;;;;5017271;28;20195;-76
2021/12/19 06:21:27;;;;;;;1.33;1.33;;;0.10;90.20;;;;;;5039924;28;20207;-76
2021/12/19 06:23:53;;;;;;;2.53;2.33;;;0.10;90.30;;;;;;5042115;28;20558;-75
2021/12/19 06:26:19;;;;;;;1.67;1.63;;;0.10;90.30;;;;;;5035266;28;20287;-76
2021/12/19 06:28:44;;;;;;;3.33;2.70;;;0.00;90.40;;;;;;5034730;28;20189;-76
2021/12/19 06:31:10;;;;;;;3.40;2.23;;;0.00;90.40;;;;;;5037907;28;20188;-76
2021/12/19 06:33:36;;;;;;;3.60;2.00;;;0.00;90.40;;;;;;5040072;28;20198;-76
2021/12/19 06:36:03;;;;;;;2.13;1.93;;;0.00;90.30;;;;;;5035622;28;20212;-76
2021/12/19 06:38:28;;;;;;;1.87;1.77;;;-0.10;90.60;;;;;;5038298;28;20183;-76
2021/12/19 06:40:54;;;;;;;2.17;2.03;;;0.00;91.00;;;;;;5037339;28;20198;-75
2021/12/19 06:43:20;;;;;;;2.50;1.87;;;0.00;90.50;;;;;;5036392;28;20180;-75
2021/12/19 06:45:47;;;;;;;2.30;1.70;;;0.10;90.50;;;;;;5033662;28;20717;-75
2021/12/19 06:48:13;;;;;;;2.53;1.90;;;0.20;90.20;;;;;;5037260;28;20579;-75
2021/12/19 06:50:39;;;;;;;3.77;2.13;;;0.30;89.90;;;;;;5036638;28;20191;-76
2021/12/19 06:53:04;;;;;;;2.17;1.97;;;0.60;89.30;;;;;;5036444;28;20280;-75
2021/12/19 06:55:30;;;;;;;2.97;2.10;;;0.90;89.00;;;;;;5041742;28;20183;-74
2021/12/19 06:57:56;;;;;;;2.00;1.90;;;1.20;88.20;;;;;;5032393;28;20619;-76
2021/12/19 07:00:24;;;;;;;2.03;1.93;;;1.50;87.40;;;;;;5038316;28;20260;-76
2021/12/19 07:02:52;;;;;;;2.30;1.90;;;1.90;87.10;;;;;;5038669;28;20190;-76
2021/12/19 07:05:17;;;;;;;2.23;2.03;;;2.20;85.30;;;;;;5040824;28;20187;-76
2021/12/19 07:07:43;;;;;;;3.37;3.10;;;2.40;84.60;;;;;;5039452;28;20258;-75
2021/12/19 07:10:10;;;;;;;2.03;1.70;;;2.60;83.70;;;;;;5036799;28;20270;-76
2021/12/19 07:12:35;;;;;;;2.83;2.60;;;2.70;83.10;;;;;;5030760;28;20187;-74
2021/12/19 07:15:03;;;;;;;2.80;2.03;;;3.00;83.40;;;;;;5034408;28;20179;-75
2021/12/19 07:17:29;;;;;;;3.70;2.97;;;3.10;82.00;;;;;;5033548;28;20179;-76
2021/12/19 07:19:54;;;;;;;6.20;3.10;;;3.30;81.50;;;;;;5039832;28;20188;-75
2021/12/19 07:22:20;;;;;;;2.60;2.40;;;3.50;81.10;;;;;;5038998;28;20175;-76
2021/12/19 07:24:46;;;;;;;2.90;2.47;;;3.60;80.70;;;;;;5035178;28;20670;-75
2021/12/19 07:27:15;;;;;;;2.43;2.33;;;3.90;80.10;;;;;;5041383;28;20226;-77
2021/12/19 07:29:41;;;;;;;4.17;2.40;;;4.00;79.30;;;;;;5039893;28;20214;-76
2021/12/19 07:32:07;;;;;;;2.53;2.33;;;3.90;78.40;;;;;;5034738;28;20254;-76
2021/12/19 07:34:36;;;;;;;3.77;2.50;;;3.60;78.50;;;;;;5036211;28;20192;-76
2021/12/19 07:37:02;;;;;;;2.37;2.17;;;3.30;79.00;;;;;;5037092;28;20203;-76
2021/12/19 07:42:05;;;;;;;2.07;1.87;;;3.00;80.10;;;;;;5036085;28;20645;-75
2021/12/19 07:44:31;;;;;;;1.73;1.57;;;2.90;80.40;;;;;;5034295;28;20207;-77
2021/12/19 07:46:57;;;;;;;2.23;1.93;;;2.80;80.40;;;;;;5037002;28;20254;-76
2021/12/19 07:49:23;;;;;;;2.70;2.50;;;2.70;80.80;;;;;;5038533;28;20211;-76
2021/12/19 07:51:49;;;;;;;2.80;1.97;;;2.60;81.00;;;;;;5038413;28;20233;-78
2021/12/19 07:54:14;;;;;;;1.97;1.83;;;2.40;81.00;;;;;;5036452;28;20182;-78
2021/12/19 07:56:40;;;;;;;2.27;2.17;;;2.30;81.40;;;;;;5039725;28;20226;-76
2021/12/19 07:59:07;;;;;;;2.90;2.20;;;2.20;81.80;;;;;;5038631;28;20271;-77
2021/12/19 08:01:33;;;;;;;3.00;2.03;;;2.10;82.00;;;;;;5036908;28;20219;-76
2021/12/19 08:03:59;;;;;;;2.23;1.97;;;2.00;82.20;;;;;;5042059;28;20179;-77
2021/12/19 08:06:25;;;;;;;1.90;1.80;;;1.90;82.40;;;;;;5037757;28;20785;-77
2021/12/19 08:08:53;;;;;;;3.50;2.47;;;1.90;82.90;;;;;;5037277;28;20674;-77
2021/12/19 08:14:05;;;;;;;5.17;2.87;;;1.90;82.90;;;;;;5037723;28;20190;-75
2021/12/19 08:16:30;;;;;;;3.90;3.37;;;1.90;82.90;;;;;;5036357;28;20207;-75
2021/12/19 08:18:56;;;;;;;2.30;2.13;;;1.90;83.00;;;;;;5034100;28;20584;-75
2021/12/19 08:21:22;;;;;;;3.00;2.70;;;1.90;83.10;;;;;;5035578;28;20658;-74
2021/12/19 08:23:48;;;;;;;3.43;2.33;;;2.00;83.00;;;;;;5040979;28;20190;-74
2021/12/19 08:26:14;;;;;;;3.07;2.43;;;1.90;82.80;;;;;;5041077;28;21045;-76
2021/12/19 08:28:40;;;;;;;2.47;1.90;;;1.90;82.90;;;;;;5034597;28;20706;-75
2021/12/19 08:31:06;;;;;;;3.90;2.37;;;1.90;83.00;;;;;;5040602;28;20195;-75
2021/12/19 08:33:31;;;;;;;1.97;1.83;;;2.00;83.00;;;;;;5041420;28;20183;-74
2021/12/19 08:35:59;;;;;;;2.03;1.93;;;1.90;82.90;;;;;;5037951;28;20199;-75
2021/12/19 08:38:27;;;;;;;5.20;1.93;;;1.80;83.00;;;;;;5039672;28;20198;-74
2021/12/19 08:40:53;;;;;;;1.80;1.70;;;1.80;83.20;;;;;;5035732;28;20187;-74
2021/12/19 08:43:20;;;;;;;3.77;2.27;;;1.80;83.30;;;;;;5039827;28;20182;-73
2021/12/19 08:45:46;;;;;;;1.90;1.80;;;1.80;83.40;;;;;;5037798;28;20180;-74
2021/12/19 08:48:12;;;;;;;2.43;2.23;;;1.90;83.30;;;;;;5038907;28;20264;-74
2021/12/19 08:50:38;;;;;;;2.23;2.13;;;1.90;83.00;;;;;;5036252;28;20262;-73
2021/12/19 08:53:04;;;;;;;3.63;2.80;;;1.90;83.00;;;;;;5036275;28;20731;-73
2021/12/19 08:55:29;;;;;;;2.97;2.67;;;1.90;83.30;;;;;;5037586;28;20215;-73
2021/12/19 08:57:55;;;;;;;2.87;2.00;;;1.80;83.30;;;;;;5041082;28;20184;-74
2021/12/19 09:00:21;;;;;;;3.87;2.50;;;1.80;83.30;;;;;;5039192;28;20258;-73
2021/12/19 09:02:51;;;;;;;3.43;2.60;;;1.80;83.60;;;;;;5038131;28;20180;-74
2021/12/19 09:05:18;;;;;;;7.10;3.50;;;1.80;83.70;;;;;;5036793;28;20243;-73
2021/12/19 09:07:44;;;;;;;2.70;2.50;;;1.80;83.80;;;;;;5033666;28;20208;-73
2021/12/19 09:10:10;;;;;;;1.93;1.83;;;1.80;83.70;;;;;;5036570;28;20230;-74
2021/12/19 09:12:35;;;;;;;2.20;2.10;;;1.80;83.80;;;;;;5039839;28;20182;-74
2021/12/19 09:15:03;;;;;;;3.67;2.20;;;1.90;83.60;;;;;;5033665;28;20237;-73
2021/12/19 09:17:28;;;;;;;3.07;2.63;;;1.90;83.70;;;;;;5030400;28;20180;-74
2021/12/19 09:19:54;;;;;;;6.30;2.70;;;1.90;83.70;;;;;;5033882;28;20188;-73
2021/12/19 09:22:20;;;;;;;2.70;2.10;;;1.90;83.80;;;;;;5039303;28;20720;-73
2021/12/19 09:24:46;;;;;;;3.20;2.90;;;1.90;83.80;;;;;;5039715;28;20711;-75
2021/12/19 09:27:12;;;;;;;5.77;2.03;;;1.90;84.10;;;;;;5034602;28;20223;-75
2021/12/19 09:29:38;;;;;;;2.90;2.33;;;1.80;84.40;;;;;;5035857;28;20188;-75
2021/12/19 09:32:04;;;;;;;2.27;2.17;;;1.80;84.50;;;;;;5029192;28;20180;-74
2021/12/19 09:34:30;;;;;;;1.80;1.70;;;1.80;84.60;;;;;;5037349;28;20948;-74
2021/12/19 09:36:57;;;;;;;2.80;2.57;;;1.80;84.80;;;;;;5036771;28;20274;-74
2021/12/19 09:39:24;;;;;;;2.57;2.30;;;1.80;84.90;;;;;;5034670;28;20187;-73
2021/12/19 09:41:57;;;;;;;3.10;2.80;;;1.80;85.00;;;;;;5032715;28;20195;-73
2021/12/19 09:44:23;;;;;;;2.33;2.13;;;1.80;85.00;;;;;;5038726;28;20190;-73
2021/12/19 09:46:49;;;;;;;3.87;3.10;;;1.90;85.00;;;;;;5037328;28;20614;-75
2021/12/19 09:49:17;;;;;;;2.87;2.17;;;1.90;84.80;;;;;;5037174;28;20218;-73
2021/12/19 09:51:44;;;;;;;1.90;1.83;;;1.80;84.80;;;;;;5033507;28;20181;-74
2021/12/19 09:54:11;;;;;;;2.33;2.23;;;1.80;84.90;;;;;;5039997;28;20196;-73
2021/12/19 09:56:38;;;;;;;4.17;3.47;;;1.90;84.90;;;;;;5038966;28;20280;-73
2021/12/19 09:59:09;;;;;;;5.30;2.50;;;1.90;84.90;;;;;;5033806;28;21677;-73
2021/12/19 10:01:35;;;;;;;3.30;2.97;;;2.00;84.80;;;;;;5038106;28;20176;-77
2021/12/19 10:04:01;;;;;;;3.17;2.90;;;2.10;84.70;;;;;;5032085;28;20586;-72
2021/12/19 10:06:29;;;;;;;3.67;2.17;;;2.10;84.20;;;;;;5035330;28;20286;-72
2021/12/19 10:09:08;;;;;;;2.93;2.43;;;2.10;83.90;;;;;;5031721;28;20176;-74
2021/12/19 10:14:36;;;;;;;2.97;2.23;;;2.10;84.20;;;;;;4996916;28;20195;-75
2021/12/19 10:17:15;;;;;;;3.60;2.30;;;2.10;84.40;;;;;;4989983;28;20193;-74
2021/12/19 10:19:50;;;;;;;1.93;1.80;;;2.20;84.50;;;;;;4988705;28;20195;-74
2021/12/19 10:22:24;;;;;;;3.07;2.33;;;2.20;84.60;;;;;;4994960;28;20192;-75
2021/12/19 10:24:51;;;;;;;6.40;2.70;;;2.20;84.80;;;;;;4991634;28;20189;-75
2021/12/19 10:27:34;;;;;;;2.37;2.23;;;2.20;84.80;;;;;;4991091;28;20745;-74
2021/12/19 10:30:00;;;;;;;3.07;2.53;;;2.20;84.90;;;;;;4987465;28;20718;-74
2021/12/19 10:32:26;;;;;;;2.77;2.53;;;2.30;85.00;;;;;;4995172;28;20680;-74
2021/12/19 10:35:13;;;;;;;4.57;4.17;;;2.30;85.10;;;;;;4997514;28;20208;-74
2021/12/19 10:37:39;;;;;;;4.00;3.50;;;2.40;85.10;;;;;;4995452;28;20205;-75
2021/12/19 10:40:06;;;;;;;6.40;4.53;;;2.40;85.40;;;;;;4994061;28;20220;-74
2021/12/19 10:43:15;;;;;;;7.37;4.83;;;2.50;85.20;;;;;;4996001;28;20617;-74
2021/12/19 10:45:53;;;;;;;3.47;3.20;;;2.60;85.10;;;;;;4989186;28;20216;-75
2021/12/19 10:48:24;;;;;;;3.33;2.93;;;2.70;84.80;;;;;;4995738;28;20209;-74
2021/12/19 10:50:57;;;;;;;6.90;4.23;;;2.70;84.60;;;;;;5007336;28;20203;-74
2021/12/19 10:53:27;;;;;;;5.77;3.77;;;2.70;84.70;;;;;;5040203;28;20264;-77
2021/12/19 10:55:54;;;;;;;6.13;4.33;;;2.70;84.60;;;;;;5035704;28;20190;-74
2021/12/19 10:58:37;;;;;;;7.50;4.17;;;2.70;84.60;;;;;;5038660;28;20244;-75
2021/12/19 11:01:07;;;;;;;3.93;3.47;;;2.70;84.50;;;;;;5037988;28;20234;-76
2021/12/19 11:03:51;;;;;;;14.07;4.00;;;2.70;84.20;;;;;;5034842;28;20185;-77
2021/12/19 11:06:23;;;;;;;3.47;2.73;;;2.70;84.20;;;;;;5040042;28;20716;-76
2021/12/19 11:08:51;;;;;;;3.00;2.83;;;2.60;84.20;;;;;;5036597;28;20181;-75
2021/12/19 11:11:30;;;;;;;3.30;2.60;;;2.50;84.50;;;;;;5041764;28;20203;-74
2021/12/19 11:13:56;;;;;;;2.90;2.60;;;2.50;84.60;;;;;;5035360;28;20199;-75
2021/12/19 11:16:23;;;;;;;3.63;2.87;;;2.50;84.50;;;;;;5037901;28;20195;-76
2021/12/19 11:18:49;;;;;;;5.30;2.73;;;2.50;84.60;;;;;;5039447;28;20614;-77
2021/12/19 11:21:17;;;;;;;3.27;2.73;;;2.50;84.50;;;;;;5035785;28;20678;-76
2021/12/19 11:23:43;;;;;;;3.63;3.20;;;2.50;84.50;;;;;;5040023;28;20171;-76
2021/12/19 11:26:09;;;;;;;2.50;2.30;;;2.60;84.30;;;;;;5035505;28;20561;-76
2021/12/19 11:28:36;;;;;;;2.77;2.57;;;2.50;84.20;;;;;;5036182;28;20190;-76
2021/12/19 11:31:02;;;;;;;3.10;2.67;;;2.60;84.00;;;;;;5034502;28;20177;-76
2021/12/19 11:33:30;;;;;;;3.53;3.23;;;2.60;84.00;;;;;;5037653;28;20179;-74
2021/12/19 11:35:58;;;;;;;2.87;2.67;;;2.60;84.00;;;;;;5038129;28;20191;-77
2021/12/19 11:38:25;;;;;;;2.87;2.67;;;2.70;83.80;;;;;;5039630;28;20190;-75
2021/12/19 11:40:52;;;;;;;4.00;2.40;;;2.70;83.60;;;;;;5039120;28;20188;-74
2021/12/19 11:43:18;;;;;;;4.13;3.60;;;2.70;83.60;;;;;;5033659;28;20197;-76
2021/12/19 11:45:57;;;;;;;3.07;2.77;;;2.70;83.60;;;;;;5041159;28;20202;-76
2021/12/19 11:48:28;;;;;;;2.63;2.43;;;2.70;83.70;;;;;;5037430;28;20191;-74
2021/12/19 11:51:04;;;;;;;2.53;2.43;;;2.70;83.60;;;;;;5033593;28;20188;-75
2021/12/19 11:53:39;;;;;;;3.90;3.47;;;2.70;83.80;;;;;;5034850;28;20668;-72
2021/12/19 11:56:09;;;;;;;3.10;2.90;;;2.70;83.70;;;;;;5039366;28;20190;-74
2021/12/19 11:58:52;;;;;;;2.90;2.73;;;2.60;83.50;;;;;;5035817;28;20187;-74
2021/12/19 12:01:32;;;;;;;3.90;2.43;;;2.50;83.60;;;;;;5040415;28;20187;-73
2021/12/19 12:04:10;;;;;;;6.00;2.40;;;2.50;83.60;;;;;;5040516;28;20683;-74
2021/12/19 12:06:38;;;;;;;3.20;2.90;;;2.40;83.90;;;;;;5037552;28;20301;-76
2021/12/19 12:09:21;;;;;;;4.70;3.50;;;2.50;84.30;;;;;;5035542;28;20180;-75
2021/12/19 12:12:15;;;;;;;3.23;2.93;;;2.50;84.30;;;;;;5035038;28;20184;-73
2021/12/19 12:14:54;;;;;;;3.17;2.33;;;2.40;84.50;;;;;;5035250;28;20780;-73
2021/12/19 12:17:26;;;;;;;2.97;2.37;;;2.30;84.80;;;;;;5040978;28;20908;-75
2021/12/19 12:19:56;;;;;;;5.20;2.63;;;2.20;85.00;;;;;;5040913;28;20222;-74
2021/12/19 12:22:28;;;;;;;4.33;2.97;;;2.20;85.30;;;;;;5039578;28;20572;-74
2021/12/19 12:25:17;;;;;;;2.77;2.57;;;2.20;85.60;;;;;;5036876;28;20246;-74
2021/12/19 12:27:54;;;;;;;2.77;2.43;;;2.10;85.80;;;;;;5038699;28;20294;-77
2021/12/19 12:30:27;;;;;;;3.27;3.00;;;2.20;85.80;;;;;;5040027;28;20253;-73
2021/12/19 12:32:55;;;;;;;3.47;2.13;;;2.20;85.80;;;;;;5037709;28;20216;-75
2021/12/19 12:35:22;;;;;;;8.07;4.03;;;2.20;85.60;;;;;;5039746;28;20192;-75
2021/12/19 12:37:51;;;;;;;5.23;2.63;;;2.30;85.50;;;;;;5034350;28;20194;-75
2021/12/19 12:43:05;;;;;;;4.57;3.63;;;2.30;85.60;;;;;;5037194;28;20184;-74
2021/12/19 12:45:56;;;;;;;3.40;2.70;;;2.30;85.70;;;;;;5040291;28;20183;-74
2021/12/19 12:49:00;;;;;;;3.67;2.83;;;2.30;85.60;;;;;;5037843;28;20235;-76
2021/12/19 12:51:43;;;;;;;3.33;2.50;;;2.40;85.70;;;;;;5039008;28;20567;-75
2021/12/19 12:54:11;;;;;;;3.37;2.87;;;2.40;85.80;;;;;;5041337;28;20188;-74
2021/12/19 12:56:46;;;;;;;3.20;2.90;;;2.30;85.90;;;;;;5040280;28;20184;-74
2021/12/19 12:59:17;;;;;;;4.33;3.80;;;2.30;86.20;;;;;;5037335;28;20246;-74
2021/12/19 13:01:52;;;;;;;3.60;2.93;;;2.30;86.30;;;;;;5038634;28;20215;-75
2021/12/19 13:04:26;;;;;;;6.10;3.43;;;2.30;86.50;;;;;;5069966;28;20298;-74
2021/12/19 13:07:13;;;;;;;5.83;3.13;;;2.30;86.60;;;;;;5037908;28;20303;-75
2021/12/19 13:09:41;;;;;;;3.47;2.70;;;2.30;86.60;;;;;;5038702;28;20932;-74
2021/12/19 13:12:09;;;;;;;4.03;3.50;;;2.30;86.70;;;;;;5037788;28;20781;-73
2021/12/19 13:14:41;;;;;;;2.93;2.73;;;2.30;86.70;;;;;;5037679;28;20689;-74
2021/12/19 13:17:22;;;;;;;3.80;3.20;;;2.30;86.70;;;;;;5032695;28;20780;-74
2021/12/19 13:19:55;;;;;;;6.77;3.83;;;2.40;86.70;;;;;;5039348;28;20180;-75
2021/12/19 13:22:24;;;;;;;6.03;3.97;;;2.40;86.70;;;;;;5038212;28;20180;-75
2021/12/19 13:24:52;;;;;;;8.73;4.53;;;2.40;86.70;;;;;;5035463;28;20301;-75
2021/12/19 13:27:28;;;;;;;8.73;5.07;;;2.50;86.70;;;;;;5036212;28;20233;-73
2021/12/19 13:29:58;;;;;;;4.07;3.77;;;2.40;86.70;;;;;;5038290;28;20184;-74
2021/12/19 13:32:26;;;;;;;4.13;3.73;;;2.30;86.80;;;;;;5039205;28;20179;-74
2021/12/19 13:34:53;;;;;;;4.43;3.33;;;2.30;87.00;;;;;;5035883;28;20370;-72
2021/12/19 13:37:20;;;;;;;5.40;4.33;;;2.30;87.10;;;;;;5034711;28;20563;-74
2021/12/19 13:40:05;;;;;;;7.40;3.67;;;2.30;87.30;;;;;;5037743;28;20176;-74
2021/12/19 13:42:43;;;;;;;4.77;4.00;;;2.30;87.40;;;;;;5039397;28;20191;-74
2021/12/19 13:45:25;;;;;;;6.20;3.67;;;2.30;87.50;;;;;;5038962;28;20176;-75
2021/12/19 13:47:52;;;;;;;3.53;3.03;;;2.30;87.50;;;;;;5035360;28;20215;-75
2021/12/19 13:50:18;;;;;;;4.03;3.30;;;2.30;87.50;;;;;;5036027;28;20607;-75
2021/12/19 13:52:45;;;;;;;3.23;2.90;;;2.20;87.90;;;;;;5037928;28;21649;-75
2021/12/19 13:55:14;;;;;;;2.93;2.73;;;2.30;88.00;;;;;;5039368;28;20181;-75
2021/12/19 13:57:40;;;;;;;3.57;3.10;;;2.20;88.10;;;;;;5036818;28;20187;-75
2021/12/19 14:00:26;;;;;;;7.90;3.37;;;2.20;88.20;;;;;;5040873;28;20188;-74
2021/12/19 14:02:52;;;;;;;5.03;2.73;;;2.20;88.30;;;;;;5038109;28;20183;-75
2021/12/19 14:05:41;;;;;;;4.63;3.43;;;2.20;88.40;;;;;;5039750;28;20185;-74
2021/12/19 14:08:21;;;;;;;4.33;3.33;;;2.30;88.40;;;;;;5039298;28;20191;-76
2021/12/19 14:11:10;;;;;;;3.37;2.73;;;2.30;88.50;;;;;;5031404;28;20184;-75
2021/12/19 14:13:40;;;;;;;8.67;3.70;;;2.30;88.50;;;;;;5035420;28;20702;-75
2021/12/19 14:16:15;;;;;;;3.23;3.03;;;2.40;88.40;;;;;;5035286;28;20199;-75
2021/12/19 14:18:43;;;;;;;3.37;2.90;;;2.40;88.30;;;;;;5035642;28;20187;-75